Time;durP1;ratioP1;P1;durP2;ratioP2;P2;SDS_P1;SDS_P2;PMS_P1;PMS_P2;Temp;Humidity;BMP_temperature;BMP_pressure;BME280_temperature;BME280_humidity;BME280_pressure;Samples;Min_cycle;Max_cycle;Signal;HPM_P1;HPM_P2
2023/11/23 00:00:05;;;;;;;5.50;3.80;;;;;;;-4.36;60.30;100090.25;107231;1257;73872;-38
2023/11/23 00:02:32;;;;;;;7.50;3.80;;;;;;;-4.41;60.22;100086.34;107245;1261;67723;-38
2023/11/23 00:05:00;;;;;;;7.90;3.80;;;;;;;-4.47;60.10;100086.05;107186;1257;72696;-38
2023/11/23 00:07:28;;;;;;;6.90;4.20;;;;;;;-4.52;60.53;100094.90;107189;1258;60338;-38
2023/11/23 00:09:55;;;;;;;5.50;4.00;;;;;;;-4.56;60.42;100089.52;107120;1258;60466;-38
2023/11/23 00:12:23;;;;;;;6.70;4.00;;;;;;;-4.59;60.82;100088.55;106436;1258;1003019;-38
2023/11/23 00:14:51;;;;;;;6.50;3.80;;;;;;;-4.61;60.80;100085.09;107198;1257;67544;-38
2023/11/23 00:17:19;;;;;;;6.20;4.00;;;;;;;-4.65;61.16;100076.15;107102;1262;71690;-38
2023/11/23 00:19:47;;;;;;;5.70;3.60;;;;;;;-4.66;61.24;100071.91;107230;1257;60328;-38
2023/11/23 00:22:17;;;;;;;5.40;3.60;;;;;;;-4.66;61.42;100067.55;107236;1257;60508;-38
2023/11/23 00:24:45;;;;;;;5.10;3.80;;;;;;;-4.66;61.48;100061.73;107210;1258;72899;-38
2023/11/23 00:27:14;;;;;;;5.30;3.90;;;;;;;-4.66;61.63;100047.94;107208;1261;66347;-38
2023/11/23 00:29:45;;;;;;;5.30;3.90;;;;;;;-4.65;61.39;100045.89;107134;1257;72673;-38
2023/11/23 00:32:12;;;;;;;6.60;4.30;;;;;;;-4.66;61.57;100045.45;106334;1258;1003752;-38
2023/11/23 00:34:40;;;;;;;6.80;4.20;;;;;;;-4.67;61.34;100045.48;107051;1258;60476;-38
2023/11/23 00:37:08;;;;;;;5.00;3.90;;;;;;;-4.67;61.49;100045.52;107237;1258;73872;-38
2023/11/23 00:39:36;;;;;;;5.20;4.10;;;;;;;-4.67;61.59;100041.61;107223;1257;66792;-38
2023/11/23 00:42:06;;;;;;;5.40;3.90;;;;;;;-4.67;61.91;100033.52;107273;1258;72695;-38
2023/11/23 00:44:34;;;;;;;4.70;3.70;;;;;;;-4.69;61.90;100034.08;107229;1257;60352;-38
2023/11/23 00:47:02;;;;;;;6.10;4.20;;;;;;;-4.70;61.78;100028.58;107086;1257;60229;-38
2023/11/23 00:49:30;;;;;;;7.10;4.40;;;;;;;-4.71;61.94;100026.70;107113;1257;72673;-38
2023/11/23 00:51:58;;;;;;;6.90;4.40;;;;;;;-4.72;61.83;100027.46;107201;1260;67688;-38
2023/11/23 00:54:27;;;;;;;6.20;4.00;;;;;;;-4.74;61.76;100028.03;107209;1262;72655;-38
2023/11/23 00:56:55;;;;;;;6.10;4.10;;;;;;;-4.74;61.77;100028.56;106303;1260;1003136;-38
2023/11/23 00:59:22;;;;;;;6.40;4.50;;;;;;;-4.76;61.90;100017.84;107205;1257;60380;-38
2023/11/23 01:01:50;;;;;;;6.50;4.20;;;;;;;-4.79;61.83;100016.79;107047;1257;73921;-38
2023/11/23 01:04:18;;;;;;;6.10;4.10;;;;;;;-4.79;61.81;100018.17;107182;1258;68067;-38
2023/11/23 01:06:46;;;;;;;7.10;4.50;;;;;;;-4.83;61.82;100010.71;107180;1257;72483;-38
2023/11/23 01:09:13;;;;;;;5.90;3.90;;;;;;;-4.82;62.12;100007.23;106505;1257;1003514;-38
2023/11/23 01:11:40;;;;;;;7.30;4.00;;;;;;;-4.80;62.33;100003.14;107249;1260;58887;-38
2023/11/23 01:14:08;;;;;;;5.60;3.40;;;;;;;-4.75;62.48;99995.91;107210;1261;73885;-38
2023/11/23 01:16:36;;;;;;;5.20;3.70;;;;;;;-4.64;62.13;99989.65;107259;1257;66274;-38
2023/11/23 01:19:04;;;;;;;8.00;4.10;;;;;;;-4.62;62.37;99982.80;107261;1257;71535;-38
2023/11/23 01:21:32;;;;;;;7.00;4.10;;;;;;;-4.65;62.56;99976.15;107249;1260;60469;-38
2023/11/23 01:23:59;;;;;;;6.30;4.10;;;;;;;-4.67;62.88;99970.46;107139;1257;60380;-38
2023/11/23 01:26:27;;;;;;;6.00;4.60;;;;;;;-4.67;63.07;99969.95;107061;1257;73849;-38
2023/11/23 01:28:54;;;;;;;6.00;4.50;;;;;;;-4.66;63.29;99967.52;107202;1261;67580;-38
2023/11/23 01:31:22;;;;;;;6.20;4.20;;;;;;;-4.67;63.28;99962.05;107246;1260;72642;-38
2023/11/23 01:33:50;;;;;;;5.00;3.40;;;;;;;-4.69;63.69;99965.98;107236;1257;60093;-38
2023/11/23 01:36:18;;;;;;;7.50;4.60;;;;;;;-4.72;63.65;99970.94;107213;1257;60347;-38
2023/11/23 01:38:48;;;;;;;;;;;;;;;-4.76;63.57;99966.21;107237;1258;72620;-38
2023/11/23 01:41:15;;;;;;;7.40;4.60;;;;;;;-4.81;63.91;99962.02;107254;1257;67583;-38
2023/11/23 01:43:46;;;;;;;5.40;4.30;;;;;;;-4.86;64.12;99955.55;107269;1257;71475;-38
2023/11/23 01:46:14;;;;;;;6.30;3.90;;;;;;;-4.89;64.27;99952.06;107244;1257;60376;-38
2023/11/23 01:48:42;;;;;;;7.50;4.60;;;;;;;-4.90;64.22;99947.95;107018;1257;60444;-38
2023/11/23 01:51:12;;;;;;;6.70;4.40;;;;;;;-4.87;63.95;99943.48;107252;1257;73846;-38
2023/11/23 01:53:40;;;;;;;5.80;4.00;;;;;;;-4.81;63.88;99940.08;107062;1257;67563;-38
2023/11/23 01:56:09;;;;;;;5.60;4.20;;;;;;;-4.78;63.74;99937.88;106257;1257;1003193;-41
2023/11/23 01:58:37;;;;;;;6.40;4.70;;;;;;;-4.80;64.06;99937.23;107095;1257;59604;-37
2023/11/23 02:01:04;;;;;;;5.70;4.60;;;;;;;-4.83;64.06;99939.09;107004;1257;60387;-38
2023/11/23 02:03:33;;;;;;;4.80;3.90;;;;;;;-4.82;64.42;99935.98;107078;1257;73874;-37
2023/11/23 02:06:01;;;;;;;5.70;4.10;;;;;;;-4.82;64.47;99929.77;107234;1257;67992;-37
2023/11/23 02:08:29;;;;;;;6.90;4.70;;;;;;;-4.85;64.23;99918.34;107233;1258;71878;-37
2023/11/23 02:10:57;;;;;;;7.00;4.30;;;;;;;-4.81;64.06;99920.92;107127;1257;60191;-38
2023/11/23 02:13:24;;;;;;;6.70;4.70;;;;;;;-4.84;64.09;99919.72;106240;1257;1004863;-38
2023/11/23 02:15:52;;;;;;;6.60;4.90;;;;;;;-4.83;64.14;99915.77;106409;1257;1002783;-38
2023/11/23 02:18:19;;;;;;;6.30;4.30;;;;;;;-4.84;64.37;99918.24;107050;1257;67928;-38
2023/11/23 02:20:47;;;;;;;8.00;5.30;;;;;;;-4.84;64.27;99915.11;107033;1257;71740;-38
2023/11/23 02:23:15;;;;;;;8.80;5.50;;;;;;;-4.86;63.92;99915.11;107145;1260;60181;-38
2023/11/23 02:25:42;;;;;;;7.60;5.30;;;;;;;-4.92;64.10;99911.73;107118;1257;60446;-38
2023/11/23 02:28:09;;;;;;;8.40;4.80;;;;;;;-4.98;64.42;99912.14;107121;1257;74000;-38
2023/11/23 02:30:37;;;;;;;6.50;4.70;;;;;;;-5.02;64.66;99907.64;107237;1257;67579;-38
2023/11/23 02:33:08;;;;;;;5.50;3.90;;;;;;;-4.98;64.50;99904.90;107186;1257;72702;-38
2023/11/23 02:35:35;;;;;;;6.80;4.10;;;;;;;-4.92;64.51;99899.58;107222;1260;60568;-38
2023/11/23 02:38:03;;;;;;;6.00;4.40;;;;;;;-4.92;64.69;99899.05;107569;1253;60019;-38
2023/11/23 02:40:30;;;;;;;7.30;4.50;;;;;;;-4.93;64.99;99899.09;107522;1254;72580;-38
2023/11/23 02:42:58;;;;;;;6.60;4.60;;;;;;;-4.90;65.12;99904.10;107534;1254;67575;-37
2023/11/23 02:45:26;;;;;;;7.80;4.90;;;;;;;-4.88;65.18;99907.23;107465;1254;71419;-38
2023/11/23 02:47:54;;;;;;;10.00;5.00;;;;;;;-4.88;65.37;99906.18;107607;1254;60716;-37
2023/11/23 02:50:21;;;;;;;6.60;4.30;;;;;;;-4.90;65.31;99906.23;107549;1253;60344;-37
2023/11/23 02:52:49;;;;;;;10.60;4.60;;;;;;;-4.89;65.33;99905.06;107517;1253;73298;-38
2023/11/23 02:55:17;;;;;;;6.60;4.60;;;;;;;-4.90;65.31;99899.13;107459;1253;66582;-37
2023/11/23 02:57:45;;;;;;;6.10;4.70;;;;;;;-4.91;65.62;99899.02;107533;1254;72064;-37
2023/11/23 03:00:13;;;;;;;7.70;5.00;;;;;;;-4.93;65.81;99906.95;107538;1253;60412;-37
2023/11/23 03:02:41;;;;;;;6.50;4.60;;;;;;;-4.93;65.94;99901.63;107446;1254;151299;-37
2023/11/23 03:05:46;;;;;;;6.80;4.80;;;;;;;-4.80;65.73;99910.48;104235;1290;601140;-38
2023/11/23 03:08:13;;;;;;;7.00;4.40;;;;;;;-4.68;65.83;99904.05;106644;1266;59267;-39
2023/11/23 03:10:42;;;;;;;6.20;4.70;;;;;;;-4.61;65.72;99895.56;106638;1266;60137;-39
2023/11/23 03:13:10;;;;;;;6.90;4.60;;;;;;;-4.55;65.91;99893.86;106641;1266;72272;-38
2023/11/23 03:15:37;;;;;;;6.10;4.80;;;;;;;-4.48;65.82;99881.74;106698;1265;66789;-39
2023/11/23 03:18:05;;;;;;;5.80;4.10;;;;;;;-4.42;65.65;99875.15;106698;1266;72683;-39
2023/11/23 03:20:35;;;;;;;7.70;5.20;;;;;;;-4.41;65.37;99870.81;106742;1263;140344;-39
2023/11/23 03:23:03;;;;;;;7.70;5.40;;;;;;;-4.44;65.16;99870.73;106755;1263;60037;-39
2023/11/23 03:25:30;;;;;;;7.20;4.70;;;;;;;-4.46;65.10;99872.77;106822;1262;72404;-39
2023/11/23 03:27:59;;;;;;;8.10;5.20;;;;;;;-4.49;65.09;99869.83;106843;1263;67653;-39
2023/11/23 03:30:26;;;;;;;7.00;4.80;;;;;;;-4.52;65.24;99863.83;105345;1263;1003040;-39
2023/11/23 03:32:54;;;;;;;6.60;4.90;;;;;;;-4.53;65.50;99853.48;106828;1263;60184;-39
2023/11/23 03:35:21;;;;;;;7.00;4.70;;;;;;;-4.58;65.59;99840.62;106875;1266;59372;-39
2023/11/23 03:37:49;;;;;;;7.50;5.50;;;;;;;-4.63;65.65;99835.02;106846;1266;73066;-41
2023/11/23 03:40:17;;;;;;;6.90;5.30;;;;;;;-4.61;65.65;99829.90;106821;1263;66269;-39
2023/11/23 03:42:44;;;;;;;9.50;5.30;;;;;;;-4.56;65.64;99820.77;106854;1263;71401;-39
2023/11/23 03:45:12;;;;;;;6.70;4.90;;;;;;;-4.57;65.86;99820.65;106876;1263;59570;-39
2023/11/23 03:47:39;;;;;;;10.20;6.40;;;;;;;-4.62;66.06;99817.89;106855;1262;59585;-39
2023/11/23 03:50:08;;;;;;;7.50;6.20;;;;;;;-4.67;66.28;99811.64;106874;1263;73135;-39
2023/11/23 03:52:35;;;;;;;9.20;5.90;;;;;;;-4.70;66.48;99800.55;106855;1263;67890;-39
2023/11/23 03:55:04;;;;;;;9.10;6.20;;;;;;;-4.75;66.59;99792.88;106817;1263;71607;-39
2023/11/23 03:57:31;;;;;;;8.20;5.30;;;;;;;-4.81;66.90;99788.86;106827;1263;60112;-39
2023/11/23 03:59:59;;;;;;;9.50;6.10;;;;;;;-4.85;67.19;99789.88;106838;1263;60087;-39
2023/11/23 04:02:26;;;;;;;8.90;5.90;;;;;;;-4.89;67.43;99785.80;106792;1263;73028;-39
2023/11/23 04:04:54;;;;;;;7.70;5.20;;;;;;;-4.85;67.30;99777.08;106820;1263;66460;-39
2023/11/23 04:07:22;;;;;;;7.20;4.80;;;;;;;-4.76;67.20;99773.03;105986;1267;1003058;-39
2023/11/23 04:09:49;;;;;;;6.20;4.70;;;;;;;-4.74;67.40;99766.34;106731;1263;59621;-39
2023/11/23 04:12:17;;;;;;;7.60;4.80;;;;;;;-4.73;67.58;99758.79;106919;1259;60034;-39
2023/11/23 04:14:44;;;;;;;6.60;5.10;;;;;;;-4.73;67.38;99759.85;106172;1259;1003775;-39
2023/11/23 04:17:13;;;;;;;7.50;5.00;;;;;;;-4.78;67.50;99752.81;106918;1264;66267;-39
2023/11/23 04:19:40;;;;;;;8.30;5.30;;;;;;;-4.83;67.43;99751.80;106915;1259;73131;-39
2023/11/23 04:22:08;;;;;;;7.50;5.10;;;;;;;-4.91;67.51;99751.79;106925;1260;59531;-39
2023/11/23 04:24:37;;;;;;;7.70;5.20;;;;;;;-4.97;67.95;99745.70;106961;1263;59497;-39
2023/11/23 04:27:05;;;;;;;7.60;5.70;;;;;;;-5.00;67.89;99749.27;107056;1260;71815;-38
2023/11/23 04:29:33;;;;;;;6.90;4.90;;;;;;;-4.98;67.74;99742.73;106973;1260;66291;-39
2023/11/23 04:32:01;;;;;;;7.30;5.30;;;;;;;-4.91;67.76;99738.30;107017;1259;71401;-39
2023/11/23 04:34:28;;;;;;;7.90;5.60;;;;;;;-4.93;67.73;99732.40;107044;1260;59641;-39
2023/11/23 04:36:56;;;;;;;8.20;5.60;;;;;;;-4.95;67.63;99733.66;106315;1260;1003579;-39
2023/11/23 04:39:24;;;;;;;7.90;5.70;;;;;;;-4.96;67.76;99734.17;107022;1259;73148;-39
2023/11/23 04:41:51;;;;;;;7.70;5.50;;;;;;;-4.98;67.57;99727.91;106284;1260;1002904;-39
2023/11/23 04:44:19;;;;;;;10.40;5.70;;;;;;;-5.02;67.65;99730.31;106304;1259;1002843;-39
2023/11/23 04:46:47;;;;;;;7.20;5.40;;;;;;;-5.04;67.81;99732.25;107015;1260;60085;-39
2023/11/23 04:49:16;;;;;;;7.50;5.20;;;;;;;-5.05;67.83;99721.44;106134;1260;1002938;-39
2023/11/23 04:51:43;;;;;;;7.70;5.00;;;;;;;-5.03;68.01;99724.85;106993;1265;71791;-39
2023/11/23 04:54:12;;;;;;;8.40;5.40;;;;;;;-4.98;67.77;99720.19;107003;1260;65798;-39
2023/11/23 04:56:39;;;;;;;7.90;5.70;;;;;;;-4.99;68.01;99719.77;107044;1260;72653;-39
2023/11/23 04:59:07;;;;;;;7.30;5.10;;;;;;;-5.01;67.82;99715.88;107044;1260;59512;-39
2023/11/23 05:01:35;;;;;;;7.60;5.00;;;;;;;-5.03;67.94;99711.64;107013;1260;60899;-39
2023/11/23 05:04:02;;;;;;;7.00;5.10;;;;;;;-5.05;68.12;99716.10;106289;1260;1003171;-39
2023/11/23 05:06:32;;;;;;;7.30;5.00;;;;;;;-5.07;67.84;99709.41;107024;1264;67585;-39
2023/11/23 05:09:00;;;;;;;8.60;5.50;;;;;;;-5.15;67.94;99695.97;107029;1259;72673;-39
2023/11/23 05:11:28;;;;;;;7.10;5.30;;;;;;;-5.10;68.01;99704.73;107044;1260;60538;-39
2023/11/23 05:13:56;;;;;;;7.70;4.90;;;;;;;-5.05;67.90;99694.42;107019;1259;60081;-39
2023/11/23 05:16:24;;;;;;;6.50;4.80;;;;;;;-4.97;67.91;99681.50;106277;1259;1003079;-38
2023/11/23 05:18:51;;;;;;;7.30;5.20;;;;;;;-4.95;67.73;99675.54;107035;1259;67772;-39
2023/11/23 05:21:19;;;;;;;6.90;4.80;;;;;;;-4.98;67.51;99674.19;106235;1260;1016043;-38
2023/11/23 05:23:46;;;;;;;8.50;5.20;;;;;;;-5.01;67.76;99670.73;107036;1259;60072;-39
2023/11/23 05:26:14;;;;;;;6.60;4.80;;;;;;;-5.04;67.86;99669.80;107041;1264;59544;-38
2023/11/23 05:28:41;;;;;;;8.80;6.20;;;;;;;-5.04;67.78;99673.35;107055;1260;72816;-41
2023/11/23 05:31:09;;;;;;;6.80;4.80;;;;;;;-5.08;67.75;99674.52;107035;1260;66839;-37
2023/11/23 05:33:37;;;;;;;7.10;5.10;;;;;;;-5.13;67.98;99667.48;107020;1264;72668;-39
2023/11/23 05:36:08;;;;;;;7.80;5.00;;;;;;;-5.10;67.92;99664.50;107024;1260;61750;-39
2023/11/23 05:38:36;;;;;;;7.10;4.30;;;;;;;-5.03;67.65;99663.25;107087;1260;60004;-38
2023/11/23 05:41:04;;;;;;;7.70;4.80;;;;;;;-5.02;67.64;99653.85;107007;1260;73467;-38
2023/11/23 05:43:31;;;;;;;6.90;5.00;;;;;;;-5.04;67.60;99649.41;107070;1259;66282;-38
2023/11/23 05:45:59;;;;;;;7.30;5.30;;;;;;;-5.05;67.73;99647.38;107055;1260;71393;-38
2023/11/23 05:48:27;;;;;;;6.80;5.10;;;;;;;-5.07;67.72;99645.70;107021;1260;60201;-38
2023/11/23 05:50:55;;;;;;;7.90;5.30;;;;;;;-5.08;67.98;99644.49;107063;1259;60300;-38
2023/11/23 05:53:22;;;;;;;7.20;4.90;;;;;;;-5.11;67.81;99636.84;107032;1260;73146;-39
2023/11/23 05:55:50;;;;;;;7.80;5.30;;;;;;;-5.12;68.05;99641.38;107034;1260;66622;-39
2023/11/23 05:58:17;;;;;;;7.10;4.50;;;;;;;-5.06;68.03;99639.44;106925;1263;71358;-39
2023/11/23 06:00:45;;;;;;;7.50;5.10;;;;;;;-4.99;67.80;99624.11;106939;1260;59660;-39
2023/11/23 06:03:16;;;;;;;8.10;5.40;;;;;;;-4.99;67.77;99607.41;107004;1260;60421;-39
2023/11/23 06:05:45;;;;;;;7.10;5.20;;;;;;;-5.03;67.78;99611.92;106998;1259;74311;-39
2023/11/23 06:08:13;;;;;;;7.60;5.00;;;;;;;-5.07;67.94;99613.09;107048;1265;67928;-39
2023/11/23 06:10:40;;;;;;;7.90;5.60;;;;;;;-5.08;67.91;99606.32;106258;1260;1003063;-39
2023/11/23 06:13:08;;;;;;;7.20;5.50;;;;;;;-5.08;67.81;99602.77;106307;1260;1003147;-39
2023/11/23 06:15:35;;;;;;;9.30;5.60;;;;;;;-5.09;68.01;99595.12;106975;1260;60175;-39
2023/11/23 06:18:03;;;;;;;8.20;5.50;;;;;;;-5.18;67.95;99571.09;107009;1260;73085;-39
2023/11/23 06:20:40;;;;;;;8.00;5.00;;;;;;;-5.02;67.88;99574.92;106284;1259;1003511;-39
2023/11/23 06:23:09;;;;;;;8.30;5.20;;;;;;;-4.92;67.56;99577.21;106274;1259;1003781;-39
2023/11/23 06:25:36;;;;;;;6.40;4.20;;;;;;;-4.89;67.56;99573.70;107047;1260;59704;-39
2023/11/23 06:28:04;;;;;;;7.70;4.70;;;;;;;-4.92;67.45;99578.22;106250;1259;1003054;-39
2023/11/23 06:30:44;;;;;;;7.30;5.40;;;;;;;-4.97;67.48;99576.64;106267;1259;1005092;-39
2023/11/23 06:33:13;;;;;;;7.90;5.10;;;;;;;-5.01;67.81;99576.72;106247;1259;1003413;-38
2023/11/23 06:35:41;;;;;;;7.20;4.90;;;;;;;-5.05;67.72;99572.73;107043;1261;72265;-39
2023/11/23 06:38:08;;;;;;;7.00;4.50;;;;;;;-5.06;67.73;99571.60;107011;1260;60014;-39
2023/11/23 06:40:36;;;;;;;8.80;5.90;;;;;;;-5.08;67.72;99572.18;107010;1260;59999;-38
2023/11/23 06:43:04;;;;;;;8.40;4.70;;;;;;;-5.03;67.79;99568.36;107021;1260;73618;-39
2023/11/23 06:45:32;;;;;;;6.80;4.90;;;;;;;-4.99;67.67;99570.61;107010;1260;68044;-39
2023/11/23 06:47:59;;;;;;;7.20;5.10;;;;;;;-5.00;67.71;99564.84;107007;1265;72688;-39
2023/11/23 06:50:27;;;;;;;7.40;5.00;;;;;;;-5.01;67.75;99556.73;107010;1260;60046;-39
2023/11/23 06:52:55;;;;;;;7.10;5.00;;;;;;;-5.02;67.56;99549.80;106311;1259;1002499;-38
2023/11/23 06:55:22;;;;;;;7.90;5.50;;;;;;;-5.04;67.93;99551.42;107021;1260;72050;-39
2023/11/23 06:57:50;;;;;;;7.70;5.20;;;;;;;-5.05;67.80;99545.09;107041;1259;66469;-39
2023/11/23 07:00:25;;;;;;;7.30;4.70;;;;;;;-5.02;67.67;99535.80;107044;1260;72778;-39
2023/11/23 07:02:55;;;;;;;6.70;5.10;;;;;;;-4.96;67.60;99537.95;107034;1260;60215;-39
2023/11/23 07:05:24;;;;;;;7.40;5.40;;;;;;;-4.95;67.73;99535.95;106310;1260;1003085;-39
2023/11/23 07:07:52;;;;;;;6.90;5.30;;;;;;;-4.96;67.59;99531.87;107017;1260;72125;-39
2023/11/23 07:10:20;;;;;;;9.20;5.60;;;;;;;-4.97;67.66;99530.91;106993;1259;67285;-39
2023/11/23 07:12:50;;;;;;;8.00;5.50;;;;;;;-4.98;67.83;99520.27;107011;1260;72968;-39
2023/11/23 07:15:17;;;;;;;7.80;5.90;;;;;;;-4.97;67.88;99508.59;107058;1260;60326;-41
2023/11/23 07:17:47;;;;;;;7.90;5.00;;;;;;;-4.95;67.63;99503.38;106919;1259;60534;-42
2023/11/23 07:20:15;;;;;;;7.80;5.00;;;;;;;-4.88;67.48;99488.71;106935;1260;73822;-41
2023/11/23 07:22:43;;;;;;;9.40;5.80;;;;;;;-4.87;67.51;99481.32;106949;1259;65457;-42
2023/11/23 07:25:11;;;;;;;8.50;6.10;;;;;;;-4.89;67.30;99470.05;107006;1259;72700;-42
2023/11/23 07:27:38;;;;;;;6.30;4.90;;;;;;;-4.88;67.38;99455.02;106997;1260;59298;-43
2023/11/23 07:30:07;;;;;;;6.90;5.10;;;;;;;-4.91;67.10;99446.63;107038;1259;60074;-40
2023/11/23 07:32:34;;;;;;;9.20;5.90;;;;;;;-4.91;67.26;99433.66;106211;1259;1003138;-40
2023/11/23 07:35:03;;;;;;;8.50;5.40;;;;;;;-4.89;67.42;99431.45;107001;1264;67558;-37
2023/11/23 07:37:33;;;;;;;6.90;5.20;;;;;;;-4.81;67.41;99423.72;107008;1260;72668;-39
2023/11/23 07:40:12;;;;;;;10.10;5.60;;;;;;;-4.68;67.37;99412.98;106975;1260;60358;-39
2023/11/23 07:42:42;;;;;;;7.90;5.40;;;;;;;-4.58;67.06;99411.27;107036;1260;60513;-39
2023/11/23 07:45:10;;;;;;;7.50;5.20;;;;;;;-4.54;66.88;99414.63;106987;1260;73875;-39
2023/11/23 07:47:41;;;;;;;7.60;5.40;;;;;;;-4.48;66.93;99410.36;106228;1259;1002935;-40
2023/11/23 07:50:10;;;;;;;6.90;5.20;;;;;;;-4.44;66.61;99392.27;106982;1260;71470;-40
2023/11/23 07:52:38;;;;;;;8.20;6.00;;;;;;;-4.45;66.43;99370.72;106981;1260;60486;-40
2023/11/23 07:55:06;;;;;;;8.00;5.30;;;;;;;-4.46;66.59;99357.09;106969;1259;60405;-40
2023/11/23 07:57:33;;;;;;;5.70;4.70;;;;;;;-4.41;66.42;99351.02;107005;1265;73858;-40
2023/11/23 08:00:04;;;;;;;7.10;5.10;;;;;;;-4.33;66.28;99346.05;107024;1260;68033;-40
2023/11/23 08:02:32;;;;;;;6.10;4.80;;;;;;;-4.31;66.12;99339.11;107073;1264;71392;-40
2023/11/23 08:04:59;;;;;;;7.60;5.60;;;;;;;-4.32;66.08;99341.66;107022;1265;60336;-39
2023/11/23 08:07:27;;;;;;;7.50;5.30;;;;;;;-4.33;66.08;99349.48;107027;1259;60297;-40
2023/11/23 08:09:57;;;;;;;7.50;5.50;;;;;;;-4.34;65.82;99341.75;107039;1265;72564;-39
2023/11/23 08:12:25;;;;;;;7.60;5.80;;;;;;;-4.35;65.77;99342.33;107015;1259;66819;-40
2023/11/23 08:14:53;;;;;;;7.60;5.30;;;;;;;-4.34;65.95;99335.92;106847;1259;71997;-41
2023/11/23 08:17:20;;;;;;;7.30;5.00;;;;;;;-4.26;65.78;99332.55;106993;1266;60483;-40
2023/11/23 08:19:48;;;;;;;6.70;5.40;;;;;;;-4.18;65.45;99346.59;106220;1265;1003809;-40
2023/11/23 08:22:19;;;;;;;8.00;5.50;;;;;;;-4.14;65.45;99334.26;106893;1260;76005;-40
2023/11/23 08:24:47;;;;;;;7.70;5.60;;;;;;;-4.11;65.58;99336.69;106921;1265;68688;-40
2023/11/23 08:27:15;;;;;;;7.80;5.60;;;;;;;-4.08;65.52;99335.54;106930;1260;72754;-40
2023/11/23 08:29:43;;;;;;;7.50;5.70;;;;;;;-4.07;65.24;99335.13;106218;1259;1003046;-38
2023/11/23 08:32:12;;;;;;;7.10;5.50;;;;;;;-4.07;65.38;99325.96;106965;1260;60396;-39
2023/11/23 08:34:40;;;;;;;6.80;5.20;;;;;;;-4.15;64.81;99312.29;106851;1259;73844;-38
2023/11/23 08:37:11;;;;;;;8.10;4.80;;;;;;;-4.00;65.05;99316.53;106916;1260;67628;-38
2023/11/23 08:39:40;;;;;;;7.10;5.30;;;;;;;-3.93;64.73;99315.63;106966;1260;71926;-38
2023/11/23 08:42:10;;;;;;;7.20;5.30;;;;;;;-3.90;64.87;99312.45;107015;1266;60365;-38
2023/11/23 08:44:38;;;;;;;7.20;5.50;;;;;;;-3.88;64.17;99296.41;107095;1260;60902;-38
2023/11/23 08:47:05;;;;;;;7.20;5.90;;;;;;;-3.89;64.00;99293.48;107017;1265;73847;-39
2023/11/23 08:49:33;;;;;;;7.50;6.30;;;;;;;-3.96;63.86;99275.74;107036;1260;67670;-40
2023/11/23 08:52:01;;;;;;;11.10;6.00;;;;;;;-3.97;64.49;99268.12;106986;1260;74739;-39
2023/11/23 08:54:28;;;;;;;7.60;5.10;;;;;;;-3.98;64.73;99266.33;106978;1266;62075;-39
2023/11/23 08:56:56;;;;;;;6.60;5.20;;;;;;;-3.92;64.22;99258.90;107017;1264;60103;-39
2023/11/23 08:59:24;;;;;;;8.00;5.70;;;;;;;-3.86;64.49;99246.13;107002;1263;73045;-39
2023/11/23 09:01:52;;;;;;;8.70;6.10;;;;;;;-3.86;64.35;99249.30;106839;1260;66457;-39
2023/11/23 09:04:36;;;;;;;7.70;6.00;;;;;;;-3.96;64.40;99231.42;106958;1260;72769;-39
2023/11/23 09:07:12;;;;;;;9.50;5.80;;;;;;;-3.92;64.55;99235.77;106975;1263;60361;-39
2023/11/23 09:09:40;;;;;;;9.10;6.30;;;;;;;-4.00;64.33;99227.93;106856;1263;60335;-39
2023/11/23 09:12:08;;;;;;;10.40;6.50;;;;;;;-4.06;64.40;99220.95;106877;1265;73824;-40
2023/11/23 09:14:35;;;;;;;8.00;5.90;;;;;;;-4.10;64.58;99230.80;106121;1262;1003235;-39
2023/11/23 09:17:16;;;;;;;10.20;5.40;;;;;;;-4.07;64.66;99215.77;106856;1260;72731;-39
2023/11/23 09:19:46;;;;;;;8.50;6.30;;;;;;;-4.08;64.51;99208.90;106926;1260;59343;-39
2023/11/23 09:22:14;;;;;;;9.00;6.20;;;;;;;-4.10;65.13;99212.91;106905;1263;60407;-38
2023/11/23 09:24:42;;;;;;;8.60;6.10;;;;;;;-4.13;65.20;99218.43;106876;1263;73839;-39
2023/11/23 09:27:10;;;;;;;7.20;6.00;;;;;;;-4.16;64.78;99215.67;106867;1261;67271;-39
2023/11/23 09:29:38;;;;;;;8.20;6.10;;;;;;;-4.19;64.88;99199.54;106867;1268;72688;-39
2023/11/23 09:32:07;;;;;;;8.40;5.90;;;;;;;-4.21;64.92;99182.70;106962;1260;60473;-39
2023/11/23 09:34:34;;;;;;;7.00;5.50;;;;;;;-4.17;64.97;99164.42;106864;1261;60560;-39
2023/11/23 09:37:02;;;;;;;7.70;5.70;;;;;;;-4.11;64.83;99147.58;106984;1263;73889;-39
2023/11/23 09:39:34;;;;;;;8.60;6.10;;;;;;;-4.11;64.97;99131.33;106817;1261;67926;-39
2023/11/23 09:42:05;;;;;;;8.80;6.00;;;;;;;-4.10;64.98;99110.14;107013;1260;72694;-39
2023/11/23 09:44:34;;;;;;;10.00;6.00;;;;;;;-4.12;65.03;99092.20;106104;1262;1002474;-39
2023/11/23 09:47:03;;;;;;;8.20;6.30;;;;;;;-4.14;64.96;99079.30;106992;1263;60299;-39
2023/11/23 09:49:31;;;;;;;10.10;6.20;;;;;;;-4.14;65.48;99063.95;106992;1263;72804;-39
2023/11/23 09:52:01;;;;;;;9.70;5.80;;;;;;;-4.14;65.58;99046.52;106844;1263;68104;-39
2023/11/23 09:54:31;;;;;;;7.20;5.50;;;;;;;-3.93;64.74;99072.55;106961;1261;72692;-39
2023/11/23 09:56:59;;;;;;;9.70;5.80;;;;;;;-3.91;64.15;99067.17;107008;1264;60719;-39
2023/11/23 09:59:30;;;;;;;8.50;6.00;;;;;;;-3.96;63.91;99056.77;107016;1264;60550;-39
2023/11/23 10:02:03;;;;;;;7.30;5.80;;;;;;;-4.00;63.84;99045.35;106786;1263;73836;-38
2023/11/23 10:04:33;;;;;;;7.60;5.80;;;;;;;-4.02;63.88;99034.99;106720;1263;67884;-38
2023/11/23 10:07:03;;;;;;;9.20;5.70;;;;;;;-4.04;63.87;99029.39;106846;1264;72615;-39
2023/11/23 10:09:35;;;;;;;8.80;6.40;;;;;;;-4.08;64.07;99032.05;106772;1266;60430;-39
2023/11/23 10:12:04;;;;;;;8.80;5.80;;;;;;;-4.11;64.07;99018.29;106929;1261;62408;-39
2023/11/23 10:14:31;;;;;;;9.30;5.70;;;;;;;-4.11;64.17;99015.29;106833;1268;74023;-40
2023/11/23 10:16:59;;;;;;;10.60;7.40;;;;;;;-4.08;64.23;99004.73;107002;1261;68109;-39
2023/11/23 10:19:27;;;;;;;10.30;6.80;;;;;;;-4.10;64.27;98990.75;106973;1261;70721;-39
2023/11/23 10:21:58;;;;;;;12.00;6.60;;;;;;;-4.14;64.55;98970.41;107001;1261;59659;-39
2023/11/23 10:24:28;;;;;;;8.20;6.40;;;;;;;-4.16;64.89;98965.38;107003;1264;60434;-39
2023/11/23 10:26:56;;;;;;;9.00;7.30;;;;;;;-4.20;64.99;98959.58;106856;1260;72631;-39
2023/11/23 10:29:28;;;;;;;9.40;6.90;;;;;;;-4.23;65.09;98959.13;106890;1263;66553;-40
2023/11/23 10:32:00;;;;;;;11.00;7.00;;;;;;;-4.21;65.34;98941.38;106973;1260;73079;-39
2023/11/23 10:34:31;;;;;;;9.60;6.90;;;;;;;-4.15;65.35;98932.25;106868;1266;60514;-39
2023/11/23 10:36:59;;;;;;;9.30;6.50;;;;;;;-4.13;65.58;98934.62;106108;1265;1002852;-39
2023/11/23 10:39:27;;;;;;;8.50;6.40;;;;;;;-4.16;65.51;98936.58;106838;1262;74021;-39
2023/11/23 10:41:56;;;;;;;10.50;6.80;;;;;;;-4.17;65.59;98930.98;106839;1268;67342;-39
2023/11/23 10:44:23;;;;;;;10.20;7.20;;;;;;;-4.19;65.54;98924.91;106029;1267;1005443;-39
2023/11/23 10:46:53;;;;;;;11.00;8.10;;;;;;;-4.23;65.59;98920.91;106826;1268;60423;-39
2023/11/23 10:49:21;;;;;;;9.70;7.40;;;;;;;-4.28;66.14;98914.64;106868;1263;60357;-40
2023/11/23 10:51:49;;;;;;;9.20;7.30;;;;;;;-4.23;66.07;98910.52;106724;1264;74266;-39
2023/11/23 10:54:16;;;;;;;10.00;7.40;;;;;;;-4.22;66.24;98896.45;106816;1268;66311;-38
2023/11/23 10:56:44;;;;;;;9.50;7.60;;;;;;;-4.22;66.52;98884.49;106817;1267;72807;-39
2023/11/23 10:59:20;;;;;;;12.10;8.00;;;;;;;-4.23;66.55;98874.33;106803;1267;61122;-39
2023/11/23 11:01:49;;;;;;;10.70;8.30;;;;;;;-4.26;66.53;98855.49;106829;1262;62202;-39
2023/11/23 11:04:16;;;;;;;12.70;9.20;;;;;;;-4.26;67.09;98840.05;106864;1263;71586;-39
2023/11/23 11:06:45;;;;;;;13.10;8.50;;;;;;;-4.22;66.50;98833.04;106838;1263;66837;-38
2023/11/23 11:09:19;;;;;;;13.00;9.10;;;;;;;-4.16;66.64;98825.15;106821;1267;72700;-39
2023/11/23 11:11:53;;;;;;;13.10;9.00;;;;;;;-4.17;67.04;98804.10;106820;1262;60375;-39
2023/11/23 11:14:35;;;;;;;13.20;9.80;;;;;;;-4.19;67.18;98787.55;106846;1267;60655;-40
2023/11/23 11:17:05;;;;;;;26.60;14.50;;;;;;;-4.20;67.49;98785.38;106883;1263;74341;-39
2023/11/23 11:19:48;;;;;;;22.10;12.00;;;;;;;-4.21;67.44;98767.41;106087;1262;1003107;-38
2023/11/23 11:22:16;;;;;;;40.60;17.10;;;;;;;-4.17;67.70;98768.16;106836;1267;73291;-39
2023/11/23 11:24:47;;;;;;;22.90;10.80;;;;;;;-4.07;67.43;98766.75;106824;1268;60525;-39
2023/11/23 11:27:14;;;;;;;15.00;10.20;;;;;;;-4.05;67.65;98766.25;106112;1263;1002960;-40